sensor_id;sensor_type;location;lat;lon;timestamp;pressure;altitude;pressure_sealevel;temperature;humidity
9281;BME280;4679;47.966;7.958;2023-05-10T05:21:26;96784.38;;;12.12;91.73
9281;BME280;4679;47.966;7.958;2023-05-10T05:23:28;96788.09;;;12.11;91.78
9281;BME280;4679;47.966;7.958;2023-05-10T05:25:29;96788.63;;;12.08;91.41
9281;BME280;4679;47.966;7.958;2023-05-10T05:27:31;96787.56;;;12.09;91.76
9281;BME280;4679;47.966;7.958;2023-05-10T05:29:33;96798.50;;;12.12;91.61
9281;BME280;4679;47.966;7.958;2023-05-10T05:31:35;96793.97;;;12.13;91.78
9281;BME280;4679;47.966;7.958;2023-05-10T05:33:36;96796.88;;;12.11;91.40
9281;BME280;4679;47.966;7.958;2023-05-10T05:35:38;96790.25;;;12.14;91.39
9281;BME280;4679;47.966;7.958;2023-05-10T05:37:41;96799.53;;;12.11;91.92
9281;BME280;4679;47.966;7.958;2023-05-10T05:39:43;96799.03;;;12.14;91.74
9281;BME280;4679;47.966;7.958;2023-05-10T05:41:45;96794.25;;;12.16;91.73
9281;BME280;4679;47.966;7.958;2023-05-10T05:43:47;96800.91;;;12.19;91.43
9281;BME280;4679;47.966;7.958;2023-05-10T05:45:48;96801.97;;;12.23;91.65
9281;BME280;4679;47.966;7.958;2023-05-10T05:47:50;96808.91;;;12.29;91.61
9281;BME280;4679;47.966;7.958;2023-05-10T05:49:52;96808.13;;;12.33;91.72
9281;BME280;4679;47.966;7.958;2023-05-10T05:51:54;96809.75;;;12.35;91.44
9281;BME280;4679;47.966;7.958;2023-05-10T05:53:57;96806.03;;;12.41;91.57
9281;BME280;4679;47.966;7.958;2023-05-10T05:55:59;96811.34;;;12.41;91.33
9281;BME280;4679;47.966;7.958;2023-05-10T05:58:01;96811.63;;;12.44;91.47
9281;BME280;4679;47.966;7.958;2023-05-10T06:00:03;96802.03;;;12.43;91.80
9281;BME280;4679;47.966;7.958;2023-05-10T06:02:05;96809.50;;;12.46;91.47
9281;BME280;4679;47.966;7.958;2023-05-10T06:04:06;96811.06;;;12.42;91.38
9281;BME280;4679;47.966;7.958;2023-05-10T06:06:08;96809.47;;;12.41;91.44
9281;BME280;4679;47.966;7.958;2023-05-10T06:08:10;96816.41;;;12.42;91.71
9281;BME280;4679;47.966;7.958;2023-05-10T06:10:13;96822.53;;;12.43;91.85
9281;BME280;4679;47.966;7.958;2023-05-10T06:12:15;96825.19;;;12.43;91.39
9281;BME280;4679;47.966;7.958;2023-05-10T06:14:17;96832.38;;;12.42;91.37
9281;BME280;4679;47.966;7.958;2023-05-10T06:16:18;96830.75;;;12.41;91.63
9281;BME280;4679;47.966;7.958;2023-05-10T06:18:20;96832.38;;;12.42;91.91
9281;BME280;4679;47.966;7.958;2023-05-10T06:20:21;96824.94;;;12.44;91.57
9281;BME280;4679;47.966;7.958;2023-05-10T06:22:23;96835.56;;;12.44;91.37
9281;BME280;4679;47.966;7.958;2023-05-10T06:24:25;96830.50;;;12.43;91.31
9281;BME280;4679;47.966;7.958;2023-05-10T06:26:28;96838.22;;;12.44;91.99
9281;BME280;4679;47.966;7.958;2023-05-10T06:28:30;96830.75;;;12.41;91.54
9281;BME280;4679;47.966;7.958;2023-05-10T06:30:35;96839.28;;;12.43;91.74
9281;BME280;4679;47.966;7.958;2023-05-10T06:32:37;96839.84;;;12.50;91.27
9281;BME280;4679;47.966;7.958;2023-05-10T06:34:39;96837.44;;;12.49;91.23
9281;BME280;4679;47.966;7.958;2023-05-10T06:36:40;96841.44;;;12.46;91.05
9281;BME280;4679;47.966;7.958;2023-05-10T06:38:42;96833.44;;;12.46;91.03
9281;BME280;4679;47.966;7.958;2023-05-10T06:40:43;96840.91;;;12.49;91.56
9281;BME280;4679;47.966;7.958;2023-05-10T06:42:47;96838.50;;;12.53;90.89
9281;BME280;4679;47.966;7.958;2023-05-10T06:44:49;96841.97;;;12.53;91.02
9281;BME280;4679;47.966;7.958;2023-05-10T06:46:51;96844.63;;;12.53;90.94
9281;BME280;4679;47.966;7.958;2023-05-10T06:48:53;96846.78;;;12.56;90.99
9281;BME280;4679;47.966;7.958;2023-05-10T06:50:55;96843.84;;;12.58;90.86
9281;BME280;4679;47.966;7.958;2023-05-10T06:52:57;96844.41;;;12.60;90.90
9281;BME280;4679;47.966;7.958;2023-05-10T06:54:59;96848.94;;;12.64;90.70
9281;BME280;4679;47.966;7.958;2023-05-10T06:57:00;96844.66;;;12.68;90.44
9281;BME280;4679;47.966;7.958;2023-05-10T06:59:04;96849.19;;;12.68;90.36
9281;BME280;4679;47.966;7.958;2023-05-10T07:01:06;96850.00;;;12.74;90.45
9281;BME280;4679;47.966;7.958;2023-05-10T07:03:09;96848.94;;;12.75;90.40
9281;BME280;4679;47.966;7.958;2023-05-10T07:05:10;96849.75;;;12.75;90.25
9281;BME280;4679;47.966;7.958;2023-05-10T07:07:13;96851.09;;;12.78;90.28
9281;BME280;4679;47.966;7.958;2023-05-10T07:09:15;96859.09;;;12.83;90.13
9281;BME280;4679;47.966;7.958;2023-05-10T07:11:17;96851.63;;;12.80;89.98
9281;BME280;4679;47.966;7.958;2023-05-10T07:13:18;96851.09;;;12.78;90.17
9281;BME280;4679;47.966;7.958;2023-05-10T07:15:21;96862.00;;;12.76;90.19
9281;BME280;4679;47.966;7.958;2023-05-10T07:17:23;96854.28;;;12.80;89.71
9281;BME280;4679;47.966;7.958;2023-05-10T07:19:25;96847.91;;;12.81;89.97
9281;BME280;4679;47.966;7.958;2023-05-10T07:21:27;96866.53;;;12.81;89.87
9281;BME280;4679;47.966;7.958;2023-05-10T07:23:29;96856.44;;;12.83;89.67
9281;BME280;4679;47.966;7.958;2023-05-10T07:25:31;96860.16;;;12.82;89.55
9281;BME280;4679;47.966;7.958;2023-05-10T07:27:32;96864.94;;;12.80;89.48
9281;BME280;4679;47.966;7.958;2023-05-10T07:29:34;96861.75;;;12.83;89.15
9281;BME280;4679;47.966;7.958;2023-05-10T07:31:37;96871.59;;;12.87;89.17
9281;BME280;4679;47.966;7.958;2023-05-10T07:33:39;96877.75;;;12.93;89.34
9281;BME280;4679;47.966;7.958;2023-05-10T07:35:41;96875.91;;;12.98;88.96
9281;BME280;4679;47.966;7.958;2023-05-10T07:37:43;96870.28;;;12.95;88.90
9281;BME280;4679;47.966;7.958;2023-05-10T07:39:44;96873.47;;;12.92;88.99
9281;BME280;4679;47.966;7.958;2023-05-10T07:41:46;96876.66;;;12.89;88.75
9281;BME280;4679;47.966;7.958;2023-05-10T07:43:48;96880.41;;;12.93;88.81
9281;BME280;4679;47.966;7.958;2023-05-10T07:45:49;96886.81;;;12.97;88.67
9281;BME280;4679;47.966;7.958;2023-05-10T07:47:53;96878.28;;;12.95;88.68
9281;BME280;4679;47.966;7.958;2023-05-10T07:49:54;96878.28;;;12.95;88.50
9281;BME280;4679;47.966;7.958;2023-05-10T07:51:56;96876.16;;;13.02;88.50
9281;BME280;4679;47.966;7.958;2023-05-10T07:53:58;96879.59;;;13.02;88.41
9281;BME280;4679;47.966;7.958;2023-05-10T07:56:20;96884.41;;;13.00;88.20
9281;BME280;4679;47.966;7.958;2023-05-10T07:58:22;96879.34;;;13.04;88.51
9281;BME280;4679;47.966;7.958;2023-05-10T08:00:23;96887.59;;;13.02;88.38
9281;BME280;4679;47.966;7.958;2023-05-10T08:02:26;96888.13;;;13.04;88.04
9281;BME280;4679;47.966;7.958;2023-05-10T08:04:29;96892.41;;;13.11;87.82
9281;BME280;4679;47.966;7.958;2023-05-10T08:06:30;96887.09;;;13.16;87.80
9281;BME280;4679;47.966;7.958;2023-05-10T08:08:32;96885.50;;;13.15;87.53
9281;BME280;4679;47.966;7.958;2023-05-10T08:10:34;96888.97;;;13.15;87.34
9281;BME280;4679;47.966;7.958;2023-05-10T08:12:35;96881.78;;;13.21;87.34
9281;BME280;4679;47.966;7.958;2023-05-10T08:14:37;96881.78;;;13.21;87.23
9281;BME280;4679;47.966;7.958;2023-05-10T08:16:38;96878.06;;;13.27;87.12
9281;BME280;4679;47.966;7.958;2023-05-10T08:18:40;96882.06;;;13.29;87.23
9281;BME280;4679;47.966;7.958;2023-05-10T08:20:43;96886.88;;;13.37;87.07
9281;BME280;4679;47.966;7.958;2023-05-10T08:22:45;96885.78;;;13.49;86.81
9281;BME280;4679;47.966;7.958;2023-05-10T08:24:47;96878.31;;;13.66;86.43
9281;BME280;4679;47.966;7.958;2023-05-10T08:26:48;96877.47;;;13.76;86.00
9281;BME280;4679;47.966;7.958;2023-05-10T08:28:50;96879.63;;;13.84;85.55
9281;BME280;4679;47.966;7.958;2023-05-10T08:30:52;96880.91;;;13.91;85.50
9281;BME280;4679;47.966;7.958;2023-05-10T08:32:53;96869.97;;;14.03;85.80
9281;BME280;4679;47.966;7.958;2023-05-10T08:34:55;96872.59;;;14.13;84.72
9281;BME280;4679;47.966;7.958;2023-05-10T08:36:58;96884.06;;;14.19;84.64
9281;BME280;4679;47.966;7.958;2023-05-10T08:39:00;96884.31;;;14.22;84.79
9281;BME280;4679;47.966;7.958;2023-05-10T08:41:02;96881.41;;;14.19;84.82
9281;BME280;4679;47.966;7.958;2023-05-10T08:43:05;96883.28;;;14.18;84.35
9281;BME280;4679;47.966;7.958;2023-05-10T08:45:08;96876.88;;;14.19;83.99
9281;BME280;4679;47.966;7.958;2023-05-10T08:47:11;96877.09;;;14.28;83.97
9281;BME280;4679;47.966;7.958;2023-05-10T08:49:16;96878.47;;;14.20;83.71
9281;BME280;4679;47.966;7.958;2023-05-10T08:51:22;96881.13;;;14.20;84.01
9281;BME280;4679;47.966;7.958;2023-05-10T08:53:28;96880.59;;;14.18;83.30
9281;BME280;4679;47.966;7.958;2023-05-10T08:55:32;96873.09;;;14.25;83.59
9281;BME280;4679;47.966;7.958;2023-05-10T08:57:35;96866.94;;;14.30;83.21
9281;BME280;4679;47.966;7.958;2023-05-10T08:59:37;96866.38;;;14.43;83.06
9281;BME280;4679;47.966;7.958;2023-05-10T09:01:40;96875.66;;;14.56;82.23
9281;BME280;4679;47.966;7.958;2023-05-10T09:03:46;96866.84;;;14.60;82.16
9281;BME280;4679;47.966;7.958;2023-05-10T09:05:48;96879.38;;;14.65;81.75
9281;BME280;4679;47.966;7.958;2023-05-10T09:07:50;96876.44;;;14.66;81.66
9281;BME280;4679;47.966;7.958;2023-05-10T09:09:54;96874.50;;;14.72;80.88
9281;BME280;4679;47.966;7.958;2023-05-10T09:11:55;96867.03;;;14.74;80.66
9281;BME280;4679;47.966;7.958;2023-05-10T09:13:57;96876.91;;;14.73;81.06
9281;BME280;4679;47.966;7.958;2023-05-10T09:15:59;96883.59;;;14.71;80.52
9281;BME280;4679;47.966;7.958;2023-05-10T09:18:01;96869.69;;;14.74;80.01
9281;BME280;4679;47.966;7.958;2023-05-10T09:20:05;96881.34;;;14.88;80.21
9281;BME280;4679;47.966;7.958;2023-05-10T09:22:07;96877.34;;;14.91;80.02
9281;BME280;4679;47.966;7.958;2023-05-10T09:24:09;96893.13;;;14.87;79.60
9281;BME280;4679;47.966;7.958;2023-05-10T09:26:15;96896.34;;;14.84;79.41
9281;BME280;4679;47.966;7.958;2023-05-10T09:28:17;96898.72;;;14.91;79.39
9281;BME280;4679;47.966;7.958;2023-05-10T09:30:24;96894.88;;;15.07;78.57
9281;BME280;4679;47.966;7.958;2023-05-10T09:32:36;96894.69;;;15.32;77.50
9281;BME280;4679;47.966;7.958;2023-05-10T09:34:38;96890.06;;;15.43;77.17
9281;BME280;4679;47.966;7.958;2023-05-10T09:36:50;96901.53;;;15.43;77.30
9281;BME280;4679;47.966;7.958;2023-05-10T09:38:52;96897.97;;;15.24;77.47
9281;BME280;4679;47.966;7.958;2023-05-10T09:40:53;96907.06;;;15.23;77.18
9281;BME280;4679;47.966;7.958;2023-05-10T09:42:58;96905.28;;;15.08;77.25
9281;BME280;4679;47.966;7.958;2023-05-10T09:45:02;96904.53;;;14.98;77.24
9281;BME280;4679;47.966;7.958;2023-05-10T09:47:04;96906.22;;;14.89;77.37
9281;BME280;4679;47.966;7.958;2023-05-10T09:49:06;96905.19;;;14.80;77.67
9281;BME280;4679;47.966;7.958;2023-05-10T09:51:08;96911.63;;;14.78;77.24
9281;BME280;4679;47.966;7.958;2023-05-10T09:53:14;96916.44;;;14.76;76.83
9281;BME280;4679;47.966;7.958;2023-05-10T09:55:17;96912.59;;;14.93;76.76
9281;BME280;4679;47.966;7.958;2023-05-10T09:57:20;96904.78;;;15.06;75.88
9281;BME280;4679;47.966;7.958;2023-05-10T09:59:25;96913.56;;;15.12;75.65
9281;BME280;4679;47.966;7.958;2023-05-10T10:01:27;96905.75;;;15.21;75.03
9281;BME280;4679;47.966;7.958;2023-05-10T10:03:29;96907.25;;;15.32;74.40
9281;BME280;4679;47.966;7.958;2023-05-10T10:05:32;96918.13;;;15.45;74.17
9281;BME280;4679;47.966;7.958;2023-05-10T10:07:35;96908.88;;;15.67;73.68
9281;BME280;4679;47.966;7.958;2023-05-10T10:09:37;96910.59;;;15.87;73.10
9281;BME280;4679;47.966;7.958;2023-05-10T10:11:39;96904.66;;;15.90;73.08
9281;BME280;4679;47.966;7.958;2023-05-10T10:13:41;96914.63;;;16.08;72.15
9281;BME280;4679;47.966;7.958;2023-05-10T10:15:44;96921.09;;;16.31;71.96
9281;BME280;4679;47.966;7.958;2023-05-10T10:17:48;96916.28;;;16.51;71.59
9281;BME280;4679;47.966;7.958;2023-05-10T10:19:50;96920.25;;;16.59;70.83
9281;BME280;4679;47.966;7.958;2023-05-10T10:21:53;96922.53;;;16.71;70.94
9281;BME280;4679;47.966;7.958;2023-05-10T10:23:54;96936.59;;;16.58;70.97
9281;BME280;4679;47.966;7.958;2023-05-10T10:25:59;96928.25;;;16.64;70.12
9281;BME280;4679;47.966;7.958;2023-05-10T10:28:11;96930.22;;;16.77;69.40
9281;BME280;4679;47.966;7.958;2023-05-10T10:30:23;96928.03;;;16.56;69.71
9281;BME280;4679;47.966;7.958;2023-05-10T10:32:35;96919.94;;;16.84;69.49
9281;BME280;4679;47.966;7.958;2023-05-10T10:34:39;96922.09;;;16.64;69.50
9281;BME280;4679;47.966;7.958;2023-05-10T10:36:43;96919.34;;;16.69;69.08
9281;BME280;4679;47.966;7.958;2023-05-10T10:38:59;96921.25;;;16.87;69.13
9281;BME280;4679;47.966;7.958;2023-05-10T10:41:02;96914.66;;;17.17;67.95
9281;BME280;4679;47.966;7.958;2023-05-10T10:43:23;96923.50;;;17.17;68.08
9281;BME280;4679;47.966;7.958;2023-05-10T10:45:25;96925.22;;;17.27;67.69
9281;BME280;4679;47.966;7.958;2023-05-10T10:47:29;96938.97;;;17.26;67.01
9281;BME280;4679;47.966;7.958;2023-05-10T10:49:37;96928.16;;;16.93;67.35
9281;BME280;4679;47.966;7.958;2023-05-10T10:51:40;96918.72;;;16.77;67.52
9281;BME280;4679;47.966;7.958;2023-05-10T10:54:08;96928.97;;;16.70;67.26
9281;BME280;4679;47.966;7.958;2023-05-10T10:56:12;96924.38;;;16.94;66.51
9281;BME280;4679;47.966;7.958;2023-05-10T10:58:29;96920.66;;;17.46;65.09
9281;BME280;4679;47.966;7.958;2023-05-10T11:00:33;96919.88;;;17.65;64.41
9281;BME280;4679;47.966;7.958;2023-05-10T11:02:44;96912.81;;;17.69;64.31
9281;BME280;4679;47.966;7.958;2023-05-10T11:04:48;96916.38;;;17.64;64.05
9281;BME280;4679;47.966;7.958;2023-05-10T11:06:50;96913.44;;;17.79;63.75
9281;BME280;4679;47.966;7.958;2023-05-10T11:08:52;96908.88;;;17.61;63.96
9281;BME280;4679;47.966;7.958;2023-05-10T11:11:05;96906.50;;;17.92;62.84
9281;BME280;4679;47.966;7.958;2023-05-10T11:13:09;96910.50;;;18.08;62.81
9281;BME280;4679;47.966;7.958;2023-05-10T11:15:10;96908.53;;;18.14;62.10
9281;BME280;4679;47.966;7.958;2023-05-10T11:17:24;96917.19;;;18.24;62.12
9281;BME280;4679;47.966;7.958;2023-05-10T11:19:28;96914.50;;;18.11;61.86
9281;BME280;4679;47.966;7.958;2023-05-10T11:21:30;96915.84;;;17.81;62.17
9281;BME280;4679;47.966;7.958;2023-05-10T11:23:47;96908.94;;;18.35;60.89
9281;BME280;4679;47.966;7.958;2023-05-10T11:25:50;96907.53;;;18.23;60.99
9281;BME280;4679;47.966;7.958;2023-05-10T11:27:52;96925.97;;;17.70;61.76
9281;BME280;4679;47.966;7.958;2023-05-10T11:29:53;96920.59;;;17.51;61.56
9281;BME280;4679;47.966;7.958;2023-05-10T11:31:57;96921.38;;;17.71;61.02
9281;BME280;4679;47.966;7.958;2023-05-10T11:34:00;96916.59;;;17.68;61.27
9281;BME280;4679;47.966;7.958;2023-05-10T11:36:03;96908.47;;;17.54;60.85
9281;BME280;4679;47.966;7.958;2023-05-10T11:38:06;96915.53;;;17.31;61.17
9281;BME280;4679;47.966;7.958;2023-05-10T11:40:09;96910.78;;;17.42;60.74
9281;BME280;4679;47.966;7.958;2023-05-10T11:42:11;96905.69;;;17.59;60.04
9281;BME280;4679;47.966;7.958;2023-05-10T11:44:13;96906.06;;;17.71;60.15
9281;BME280;4679;47.966;7.958;2023-05-10T11:46:18;96910.94;;;17.50;60.14
9281;BME280;4679;47.966;7.958;2023-05-10T11:48:20;96900.63;;;17.57;59.87
9281;BME280;4679;47.966;7.958;2023-05-10T11:50:24;96897.34;;;17.79;59.78
9281;BME280;4679;47.966;7.958;2023-05-10T11:52:28;96899.47;;;17.96;58.94
9281;BME280;4679;47.966;7.958;2023-05-10T11:54:30;96895.41;;;18.26;58.38
9281;BME280;4679;47.966;7.958;2023-05-10T11:56:32;96906.25;;;17.75;59.20
9281;BME280;4679;47.966;7.958;2023-05-10T11:58:36;96905.00;;;17.53;59.65
9281;BME280;4679;47.966;7.958;2023-05-10T12:00:38;96928.06;;;17.54;59.19
9281;BME280;4679;47.966;7.958;2023-05-10T12:02:40;96923.22;;;17.38;59.44
9281;BME280;4679;47.966;7.958;2023-05-10T12:04:42;96914.09;;;17.39;58.93
9281;BME280;4679;47.966;7.958;2023-05-10T12:06:44;96921.91;;;17.35;58.93
9281;BME280;4679;47.966;7.958;2023-05-10T12:08:49;96910.84;;;17.23;58.99
9281;BME280;4679;47.966;7.958;2023-05-10T12:10:54;96912.78;;;17.17;58.66
9281;BME280;4679;47.966;7.958;2023-05-10T12:13:10;96915.47;;;17.17;59.01
9281;BME280;4679;47.966;7.958;2023-05-10T12:15:17;96920.53;;;17.19;58.56
9281;BME280;4679;47.966;7.958;2023-05-10T12:17:20;96917.63;;;17.15;58.72
9281;BME280;4679;47.966;7.958;2023-05-10T12:19:23;96914.16;;;17.15;58.64
9281;BME280;4679;47.966;7.958;2023-05-10T12:21:26;96908.66;;;17.25;58.42
9281;BME280;4679;47.966;7.958;2023-05-10T12:23:29;96907.13;;;17.38;57.57
9281;BME280;4679;47.966;7.958;2023-05-10T12:25:34;96911.91;;;17.41;57.72
9281;BME280;4679;47.966;7.958;2023-05-10T12:27:36;96907.72;;;17.16;57.82
9281;BME280;4679;47.966;7.958;2023-05-10T12:29:41;96898.78;;;17.02;58.23
9281;BME280;4679;47.966;7.958;2023-05-10T12:31:52;96891.25;;;17.04;58.08
9281;BME280;4679;47.966;7.958;2023-05-10T12:33:54;96897.78;;;16.98;57.76
9281;BME280;4679;47.966;7.958;2023-05-10T12:35:59;96885.03;;;16.90;57.25
9281;BME280;4679;47.966;7.958;2023-05-10T12:38:00;96884.59;;;16.82;57.94
9281;BME280;4679;47.966;7.958;2023-05-10T12:40:03;96891.03;;;16.81;57.67
9281;BME280;4679;47.966;7.958;2023-05-10T12:42:07;96893.00;;;16.76;57.56
9281;BME280;4679;47.966;7.958;2023-05-10T12:44:09;96899.72;;;16.73;57.98
9281;BME280;4679;47.966;7.958;2023-05-10T12:46:12;96907.97;;;16.53;57.83
9281;BME280;4679;47.966;7.958;2023-05-10T12:48:14;96916.19;;;16.38;58.37
9281;BME280;4679;47.966;7.958;2023-05-10T12:50:16;96914.63;;;16.08;58.86
9281;BME280;4679;47.966;7.958;2023-05-10T12:52:18;96918.16;;;15.74;59.33
9281;BME280;4679;47.966;7.958;2023-05-10T12:54:20;96912.88;;;15.69;59.69
9281;BME280;4679;47.966;7.958;2023-05-10T12:56:22;96925.09;;;15.80;59.83
9281;BME280;4679;47.966;7.958;2023-05-10T12:58:25;96930.84;;;15.93;59.10
9281;BME280;4679;47.966;7.958;2023-05-10T13:00:27;96931.59;;;16.75;57.66
9281;BME280;4679;47.966;7.958;2023-05-10T13:02:28;96927.56;;;17.15;57.13
9281;BME280;4679;47.966;7.958;2023-05-10T13:04:30;96933.53;;;17.63;56.41
9281;BME280;4679;47.966;7.958;2023-05-10T13:06:32;96921.94;;;18.00;56.04
9281;BME280;4679;47.966;7.958;2023-05-10T13:08:34;96925.09;;;17.88;56.37
9281;BME280;4679;47.966;7.958;2023-05-10T13:10:36;96929.00;;;17.64;56.91
9281;BME280;4679;47.966;7.958;2023-05-10T13:12:37;96933.28;;;17.46;57.35
9281;BME280;4679;47.966;7.958;2023-05-10T13:14:40;96931.50;;;17.22;57.79
9281;BME280;4679;47.966;7.958;2023-05-10T13:16:43;96934.81;;;17.14;57.66
9281;BME280;4679;47.966;7.958;2023-05-10T13:18:44;96938.22;;;17.20;58.09
9281;BME280;4679;47.966;7.958;2023-05-10T13:20:46;96925.97;;;17.33;57.73
9281;BME280;4679;47.966;7.958;2023-05-10T13:22:49;96934.88;;;17.47;57.25
9281;BME280;4679;47.966;7.958;2023-05-10T13:24:51;96927.75;;;17.56;57.16
9281;BME280;4679;47.966;7.958;2023-05-10T13:26:53;96942.69;;;17.43;57.27
9281;BME280;4679;47.966;7.958;2023-05-10T13:28:55;96938.78;;;17.17;57.86
9281;BME280;4679;47.966;7.958;2023-05-10T13:30:58;96938.88;;;16.93;58.17
9281;BME280;4679;47.966;7.958;2023-05-10T13:33:00;96937.66;;;16.80;57.96
9281;BME280;4679;47.966;7.958;2023-05-10T13:35:02;96941.72;;;16.54;58.80
9281;BME280;4679;47.966;7.958;2023-05-10T13:37:04;96935.66;;;16.48;58.90
9281;BME280;4679;47.966;7.958;2023-05-10T13:39:06;96930.06;;;16.69;58.04
9281;BME280;4679;47.966;7.958;2023-05-10T13:41:09;96934.41;;;17.26;57.02
9281;BME280;4679;47.966;7.958;2023-05-10T13:43:11;96930.22;;;17.71;55.93
9281;BME280;4679;47.966;7.958;2023-05-10T13:45:13;96931.59;;;18.01;55.47
9281;BME280;4679;47.966;7.958;2023-05-10T13:47:17;96923.59;;;17.82;55.83
9281;BME280;4679;47.966;7.958;2023-05-10T13:49:19;96913.09;;;18.00;55.33
9281;BME280;4679;47.966;7.958;2023-05-10T13:51:22;96911.81;;;18.24;55.11
9281;BME280;4679;47.966;7.958;2023-05-10T13:53:24;96911.53;;;18.53;54.70
9281;BME280;4679;47.966;7.958;2023-05-10T13:55:26;96911.66;;;18.62;54.46
9281;BME280;4679;47.966;7.958;2023-05-10T13:57:29;96897.50;;;18.70;54.48
9281;BME280;4679;47.966;7.958;2023-05-10T13:59:31;96904.47;;;18.85;54.22
9281;BME280;4679;47.966;7.958;2023-05-10T14:01:33;96895.59;;;19.20;53.62
9281;BME280;4679;47.966;7.958;2023-05-10T14:03:36;96902.28;;;19.23;53.50
9281;BME280;4679;47.966;7.958;2023-05-10T14:05:38;96905.38;;;19.16;53.94
9281;BME280;4679;47.966;7.958;2023-05-10T14:07:40;96907.09;;;18.63;54.67
9281;BME280;4679;47.966;7.958;2023-05-10T14:09:42;96915.81;;;18.13;55.52
9281;BME280;4679;47.966;7.958;2023-05-10T14:11:44;96924.75;;;17.76;56.10
9281;BME280;4679;47.966;7.958;2023-05-10T14:13:47;96915.16;;;17.38;57.08
9281;BME280;4679;47.966;7.958;2023-05-10T14:15:49;96928.94;;;16.94;57.27
9281;BME280;4679;47.966;7.958;2023-05-10T14:17:51;96922.59;;;16.66;57.60
9281;BME280;4679;47.966;7.958;2023-05-10T14:19:54;96925.13;;;16.52;58.29
9281;BME280;4679;47.966;7.958;2023-05-10T14:21:56;96926.63;;;16.39;58.35
9281;BME280;4679;47.966;7.958;2023-05-10T14:23:59;96924.66;;;16.21;58.78
9281;BME280;4679;47.966;7.958;2023-05-10T14:26:01;96920.47;;;16.15;58.88
9281;BME280;4679;47.966;7.958;2023-05-10T14:28:04;96921.91;;;16.31;59.01
9281;BME280;4679;47.966;7.958;2023-05-10T14:30:07;96923.59;;;16.22;58.89
9281;BME280;4679;47.966;7.958;2023-05-10T14:32:09;96922.59;;;16.18;58.86
9281;BME280;4679;47.966;7.958;2023-05-10T14:34:10;96915.84;;;16.21;58.88
9281;BME280;4679;47.966;7.958;2023-05-10T14:36:14;96913.25;;;16.15;59.13
9281;BME280;4679;47.966;7.958;2023-05-10T14:38:16;96924.38;;;16.23;58.84
9281;BME280;4679;47.966;7.958;2023-05-10T14:40:18;96919.44;;;16.11;58.41
9281;BME280;4679;47.966;7.958;2023-05-10T14:42:20;96919.59;;;16.19;58.66
9281;BME280;4679;47.966;7.958;2023-05-10T14:44:22;96916.13;;;16.43;58.43
9281;BME280;4679;47.966;7.958;2023-05-10T14:46:24;96922.13;;;16.59;57.49
9281;BME280;4679;47.966;7.958;2023-05-10T14:48:25;96912.72;;;16.61;58.21
9281;BME280;4679;47.966;7.958;2023-05-10T14:50:28;96926.81;;;16.48;57.85
9281;BME280;4679;47.966;7.958;2023-05-10T14:52:31;96920.66;;;16.47;58.14
9281;BME280;4679;47.966;7.958;2023-05-10T14:54:32;96916.06;;;16.24;57.90
9281;BME280;4679;47.966;7.958;2023-05-10T14:56:34;96908.84;;;16.25;58.54
9281;BME280;4679;47.966;7.958;2023-05-10T14:58:37;96919.38;;;16.16;58.33
9281;BME280;4679;47.966;7.958;2023-05-10T15:00:40;96918.41;;;16.07;58.24
9281;BME280;4679;47.966;7.958;2023-05-10T15:02:41;96911.72;;;16.33;57.83
9281;BME280;4679;47.966;7.958;2023-05-10T15:04:44;96916.84;;;16.77;56.87
9281;BME280;4679;47.966;7.958;2023-05-10T15:06:46;96908.56;;;17.11;56.14
9281;BME280;4679;47.966;7.958;2023-05-10T15:08:49;96915.09;;;17.05;56.59
9281;BME280;4679;47.966;7.958;2023-05-10T15:10:50;96910.75;;;16.91;57.23
9281;BME280;4679;47.966;7.958;2023-05-10T15:12:52;96906.63;;;16.79;57.10
9281;BME280;4679;47.966;7.958;2023-05-10T15:14:54;96902.81;;;16.80;57.11
9281;BME280;4679;47.966;7.958;2023-05-10T15:16:56;96898.84;;;16.54;57.75
9281;BME280;4679;47.966;7.958;2023-05-10T15:18:57;96901.91;;;16.47;57.43
9281;BME280;4679;47.966;7.958;2023-05-10T15:20:59;96900.06;;;16.43;57.84
9281;BME280;4679;47.966;7.958;2023-05-10T15:23:01;96899.75;;;16.49;57.41
9281;BME280;4679;47.966;7.958;2023-05-10T15:25:05;96895.00;;;16.41;57.72
9281;BME280;4679;47.966;7.958;2023-05-10T15:27:07;96904.53;;;16.29;57.87
9281;BME280;4679;47.966;7.958;2023-05-10T15:29:09;96905.13;;;16.21;57.94
9281;BME280;4679;47.966;7.958;2023-05-10T15:31:10;96909.88;;;16.29;57.48
9281;BME280;4679;47.966;7.958;2023-05-10T15:33:12;96900.59;;;16.45;57.55
9281;BME280;4679;47.966;7.958;2023-05-10T15:35:14;96903.09;;;16.60;57.03
9281;BME280;4679;47.966;7.958;2023-05-10T15:37:17;96907.53;;;16.70;57.19
9281;BME280;4679;47.966;7.958;2023-05-10T15:39:18;96904.00;;;16.74;57.26
9281;BME280;4679;47.966;7.958;2023-05-10T15:41:22;96905.91;;;16.93;56.56
9281;BME280;4679;47.966;7.958;2023-05-10T15:43:24;96902.13;;;16.94;56.40
9281;BME280;4679;47.966;7.958;2023-05-10T15:45:25;96896.84;;;17.07;56.44
9281;BME280;4679;47.966;7.958;2023-05-10T15:47:29;96901.03;;;17.13;56.42
9281;BME280;4679;47.966;7.958;2023-05-10T15:49:31;96902.34;;;17.16;56.25
9281;BME280;4679;47.966;7.958;2023-05-10T15:51:33;96904.38;;;17.24;56.08
9281;BME280;4679;47.966;7.958;2023-05-10T15:53:34;96899.38;;;17.17;55.95
9281;BME280;4679;47.966;7.958;2023-05-10T15:55:36;96896.91;;;17.21;56.12
9281;BME280;4679;47.966;7.958;2023-05-10T15:57:40;96908.94;;;17.05;56.21
9281;BME280;4679;47.966;7.958;2023-05-10T15:59:41;96906.91;;;16.97;56.67
9281;BME280;4679;47.966;7.958;2023-05-10T16:01:43;96912.91;;;16.88;56.75
9281;BME280;4679;47.966;7.958;2023-05-10T16:03:45;96915.66;;;16.83;56.94
9281;BME280;4679;47.966;7.958;2023-05-10T16:05:46;96922.38;;;16.81;56.62
9281;BME280;4679;47.966;7.958;2023-05-10T16:07:48;96926.00;;;16.71;56.99
9281;BME280;4679;47.966;7.958;2023-05-10T16:09:50;96927.88;;;16.47;57.29
9281;BME280;4679;47.966;7.958;2023-05-10T16:11:52;96923.22;;;16.34;57.13
9281;BME280;4679;47.966;7.958;2023-05-10T16:13:55;96918.47;;;16.26;57.46
9281;BME280;4679;47.966;7.958;2023-05-10T16:15:56;96918.19;;;16.27;56.95
9281;BME280;4679;47.966;7.958;2023-05-10T16:17:58;96914.47;;;16.23;57.39
9281;BME280;4679;47.966;7.958;2023-05-10T16:20:00;96916.72;;;16.16;56.72
9281;BME280;4679;47.966;7.958;2023-05-10T16:22:01;96916.06;;;16.00;57.19
9281;BME280;4679;47.966;7.958;2023-05-10T16:24:03;96924.91;;;16.01;57.13
9281;BME280;4679;47.966;7.958;2023-05-10T16:26:05;96920.38;;;15.96;57.15
9281;BME280;4679;47.966;7.958;2023-05-10T16:28:07;96916.38;;;15.94;57.02
9281;BME280;4679;47.966;7.958;2023-05-10T16:30:10;96917.56;;;15.82;57.85